• Join FlightAware (Why Join?)
  • Login
  • US Flag 
04:04AM EDT


 

Airport Tracker/Info


-or-


 

Live Flight TrackerFlight Track Log ✈ SWA1881 ✈ 28-Apr-2013 ✈ KPHX - KRNO

Flight Track Log - Related Links

Times and Time Zones

All times are in EDT time to prevent confusion due to time zone crossing. See the SWA1881 flight status page for this flight to view local times or setup timezone preferences in your user account.

Time Position Orientation Groundspeed Altitude Reporting Facility
EDT Latitude Longitude Course Direction KTS MPH feet Rate Location/Type
04:51PM 33.4333 -112.0333 270° West 173 199 1,900  Level Phoenix TRACON
04:52PM 33.4333 -112.0833 270° West 182 209 3,100 1,380 Climbing Phoenix TRACON
04:53PM 33.4336 -112.1400 270° West 207 238 4,400 2,100 Climbing Albuquerque Center
04:54PM 33.4956 -112.1889 327° Northwest 279 321 7,400 2,880 Climbing Albuquerque Center
04:55PM 33.5714 -112.1850 North 293 337 10,400 2,580 Climbing Albuquerque Center
04:56PM 33.6575 -112.2125 345° North 323 372 12,800 2,460 Climbing Albuquerque Center
04:57PM 33.7497 -112.2431 345° North 339 390 15,600 2,880 Climbing Albuquerque Center
04:58PM 33.8500 -112.2758 345° North 369 425 18,800 2,760 Climbing Albuquerque Center
04:59PM 33.9536 -112.3094 345° North 380 437 21,400 2,460 Climbing Albuquerque Center
05:00PM 34.0606 -112.3539 341° North 404 465 23,900 2,220 Climbing Albuquerque Center
05:01PM 34.1642 -112.4183 333° Northwest 416 479 26,100 2,100 Climbing Albuquerque Center
05:02PM 34.2944 -112.4994 333° Northwest 435 501 28,300 2,100 Climbing Albuquerque Center
05:03PM 34.4044 -112.5681 333° Northwest 443 510 30,500 1,980 Climbing Albuquerque Center
05:04PM 34.5033 -112.6286 333° Northwest 439 505 32,500 1,680 Climbing Albuquerque Center
05:05PM 34.6306 -112.7081 333° Northwest 433 498 34,000 720 Climbing Albuquerque Center
05:06PM 34.7261 -112.7919 324° Northwest 433 498 34,000  Level Albuquerque Center
05:07PM 34.7872 -112.9164 301° West 432 497 34,000  Level Albuquerque Center
05:09PM 34.8461 -113.0419 300° West 429 494 34,000  Level Albuquerque Center
05:10PM 34.9050 -113.1678 300° West 427 491 34,000  Level Albuquerque Center
05:11PM 34.9647 -113.2939 300° West 428 493 34,000  Level Albuquerque Center
05:12PM 35.0211 -113.4508 294° West 423 487 34,000  Level Los Angeles Center
05:13PM 35.0656 -113.5842 292° West 425 489 34,000  Level Los Angeles Center
05:14PM 35.1325 -113.7028 305° West 422 486 34,000  Level Los Angeles Center
05:15PM 35.2000 -113.8200 305° West 422 486 34,000  Level Los Angeles Center
05:16PM 35.2750 -113.9533 305° West 421 484 34,000  Level Los Angeles Center
05:17PM 35.3425 -114.0725 305° West 423 487 34,000  Level Los Angeles Center
05:18PM 35.4103 -114.1897 305° West 421 484 34,000  Level Los Angeles Center
05:19PM 35.4897 -114.3311 305° West 419 482 34,000  Level Los Angeles Center
05:20PM 35.5558 -114.4497 304° West 420 483 34,000  Level Los Angeles Center
05:21PM 35.6228 -114.5669 305° West 418 481 34,000  Level Los Angeles Center
05:22PM 35.6883 -114.6858 304° West 418 481 34,000  Level Los Angeles Center
05:23PM 35.7539 -114.8044 304° West 420 483 34,000  Level Los Angeles Center
05:24PM 35.8203 -114.9236 305° West 420 483 34,000  Level Los Angeles Center
05:25PM 35.8994 -115.0672 304° West 422 486 34,000  Level Los Angeles Center
05:26PM 35.9658 -115.1878 304° West 423 487 34,000  Level Los Angeles Center
05:27PM 36.0322 -115.3078 304° West 423 487 34,000  Level Los Angeles Center
05:28PM 36.0975 -115.4283 304° West 421 484 34,000  Level Los Angeles Center
05:29PM 36.1633 -115.5494 304° West 419 482 34,000  Level Los Angeles Center
05:30PM 36.2297 -115.6733 304° West 420 483 34,000  Level Los Angeles Center
05:31PM 36.2958 -115.7972 304° West 422 486 34,000  Level Los Angeles Center
05:32PM 36.3653 -115.9253 304° West 422 486 34,000  Level Los Angeles Center
05:33PM 36.4297 -116.0431 304° West 415 478 34,000  Level Los Angeles Center
05:34PM 36.4939 -116.1647 303° West 418 481 34,000  Level Los Angeles Center
05:36PM 36.5714 -116.3083 304° West 417 480 34,000  Level Los Angeles Center
05:37PM 36.6344 -116.4294 303° West 417 480 34,000  Level Los Angeles Center
05:38PM 36.6994 -116.5506 304° West 418 481 34,000  Level Los Angeles Center
05:39PM 36.7631 -116.6733 303° West 419 482 34,000  Level Los Angeles Center
05:40PM 36.8353 -116.7864 309° West 419 482 34,000  Level Los Angeles Center
05:41PM 36.9231 -116.8836 318° Northwest 418 481 34,000  Level Oakland Center
05:42PM 37.0089 -116.9819 318° Northwest 417 480 34,000  Level Oakland Center
05:43PM 37.0956 -117.0800 318° Northwest 419 482 34,000  Level Oakland Center
05:44PM 37.2006 -117.1989 318° Northwest 421 484 34,000  Level Oakland Center
05:45PM 37.2872 -117.2983 318° Northwest 421 484 34,000  Level Oakland Center
05:46PM 37.3692 -117.4011 315° West 416 479 34,000  Level Oakland Center
05:47PM 37.4497 -117.5083 313° West 418 481 34,000  Level Oakland Center
05:48PM 37.5300 -117.6144 314° West 417 480 34,000  Level Oakland Center
05:49PM 37.6103 -117.7203 314° West 416 479 34,000  Level Oakland Center
05:50PM 37.6903 -117.8264 314° West 414 476 34,000  Level Oakland Center
05:51PM 37.7697 -117.9314 314° West 411 473 34,000  Level Oakland Center
05:52PM 37.8475 -118.0369 313° West 409 471 34,000 -300 Level Oakland Center
05:53PM 37.9264 -118.1417 314° West 409 471 33,500 -780 Descending Oakland Center
05:54PM 38.0050 -118.2461 314° West 409 471 32,500 -1,080 Descending Oakland Center
05:55PM 38.0961 -118.3708 313° West 401 461 31,300 -1,020 Descending Oakland Center
05:56PM 38.1589 -118.4556 313° West 395 455 30,500 -1,020 Descending Oakland Center
05:57PM 38.2486 -118.5753 314° West 389 448 29,300 -1,080 Descending Oakland Center
05:58PM 38.3208 -118.6761 312° West 386 444 28,400 -960 Descending Oakland Center
05:59PM 38.3961 -118.7783 313° West 394 453 27,400 -1,020 Descending Oakland Center
06:00PM 38.4725 -118.8831 313° West 401 461 26,400 -1,020 Descending Oakland Center
06:01PM 38.5461 -118.9842 313° West 390 449 25,400 -1,020 Descending Oakland Center
06:02PM 38.6189 -119.0856 313° West 386 444 24,400 -1,080 Descending Oakland Center
06:03PM 38.6911 -119.1853 313° West 383 441 23,300 -1,620 Descending Oakland Center
06:04PM 38.7611 -119.2836 312° West 375 432 21,200 -2,040 Descending Oakland Center
06:05PM 38.8283 -119.3767 313° West 358 412 19,200 -2,100 Descending Oakland Center
06:06PM 38.9061 -119.4844 313° West 344 396 16,900 -2,160 Descending Oakland Center
06:07PM 38.9683 -119.5731 312° West 338 389 14,800 -2,160 Descending Oakland Center
06:08PM 39.0303 -119.6597 313° West 331 381 12,500 -1,560 Descending Oakland Center
06:09PM 39.0961 -119.7317 320° Northwest 322 371 11,700 -1,320 Descending Oakland Center
06:10PM 39.1739 -119.7631 343° North 308 354 9,900 -1,620 Descending Oakland Center
06:11PM 39.2567 -119.7678 357° North 300 345 8,400 -720 Descending Oakland Center
06:12PM 39.3353 -119.7644 North 291 335 8,500 -780 Climbing Oakland Center
06:14PM 39.4000 -119.7667 358° North 165 190 6,500 -1,320 Descending Northern Cal TRACON
06:15PM 39.4500 -119.7667 360° North 155 178 5,300 -1,320 Descending Northern Cal TRACON
06:17PM 39.4833 -119.7667 North  Level FlightAware Approximate
06:24PM 39.4991 -119.7681 North  Level Estimated
06:25PM 39.4991 -119.7681 North  Level Estimated